createdAt,value
2022-10-23T00:00:19.100Z,5.80
2022-10-23T00:03:35.525Z,6.03
2022-10-23T00:06:51.706Z,5.15
2022-10-23T00:10:07.835Z,5.25
2022-10-23T00:13:24.359Z,6.32
2022-10-23T00:16:40.871Z,5.20
2022-10-23T00:19:57.940Z,6.10
2022-10-23T00:23:14.438Z,5.53
2022-10-23T00:26:30.919Z,5.47
2022-10-23T00:29:47.094Z,6.03
2022-10-23T00:33:02.818Z,5.10
2022-10-23T00:36:19.057Z,5.85
2022-10-23T00:39:35.114Z,5.80
2022-10-23T00:42:51.368Z,5.90
2022-10-23T00:46:09.289Z,5.72
2022-10-23T00:49:25.872Z,5.07
2022-10-23T00:52:42.463Z,6.25
2022-10-23T00:55:58.594Z,5.18
2022-10-23T00:59:14.710Z,5.93
2022-10-23T01:02:31.232Z,4.95
2022-10-23T01:05:48.804Z,4.90
2022-10-23T01:09:07.014Z,6.47
2022-10-23T01:12:23.547Z,5.30
2022-10-23T01:15:40.763Z,5.85
2022-10-23T01:18:56.645Z,5.50
2022-10-23T01:22:12.716Z,5.03
2022-10-23T01:25:29.594Z,5.32
2022-10-23T01:28:46.830Z,5.40
2022-10-23T01:32:03.310Z,6.32
2022-10-23T01:35:19.226Z,5.85
2022-10-23T01:38:35.635Z,6.40
2022-10-23T01:41:51.733Z,5.85
2022-10-23T01:45:08.917Z,6.85
2022-10-23T01:48:25.162Z,7.13
2022-10-23T01:51:41.060Z,6.80
2022-10-23T01:54:57.474Z,7.53
2022-10-23T01:58:13.385Z,6.78
2022-10-23T02:01:29.701Z,7.03
2022-10-23T02:04:45.929Z,6.80
2022-10-23T02:08:02.296Z,7.20
2022-10-23T02:11:18.352Z,6.82
2022-10-23T02:14:34.637Z,7.22
2022-10-23T02:17:50.673Z,7.20
2022-10-23T02:21:07.029Z,6.57
2022-10-23T02:24:23.352Z,6.63
2022-10-23T02:27:39.810Z,6.63
2022-10-23T02:30:55.985Z,7.03
2022-10-23T02:34:11.852Z,6.60
2022-10-23T02:37:27.894Z,6.93
2022-10-23T02:40:45.195Z,7.30
2022-10-23T02:44:01.326Z,8.55
2022-10-23T02:47:17.331Z,7.57
2022-10-23T02:50:33.569Z,7.63
2022-10-23T02:53:50.634Z,7.05
2022-10-23T02:57:06.636Z,7.32
2022-10-23T03:00:23.558Z,7.72
2022-10-23T03:03:39.720Z,7.25
2022-10-23T03:06:56.370Z,7.65
2022-10-23T03:10:13.163Z,7.10
2022-10-23T03:13:29.174Z,6.28
2022-10-23T03:16:45.547Z,6.95
2022-10-23T03:20:01.596Z,7.22
2022-10-23T03:23:17.700Z,6.45
2022-10-23T03:26:33.936Z,6.82
2022-10-23T03:29:51.030Z,7.10
2022-10-23T03:33:07.376Z,6.20
2022-10-23T03:36:23.328Z,6.68
2022-10-23T03:39:39.798Z,7.50
2022-10-23T03:42:55.986Z,6.85
2022-10-23T03:46:12.525Z,6.18
2022-10-23T03:49:30.556Z,6.65
2022-10-23T03:52:47.110Z,6.40
2022-10-23T03:56:03.600Z,7.13
2022-10-23T03:59:21.612Z,6.57
2022-10-23T04:02:37.971Z,6.70
2022-10-23T04:05:55.590Z,6.88
2022-10-23T04:12:28.799Z,6.72
2022-10-23T04:15:46.004Z,6.50
2022-10-23T04:19:03.467Z,6.65
2022-10-23T04:22:21.788Z,7.30
2022-10-23T04:25:41.132Z,6.03
2022-10-23T04:28:57.577Z,7.57
2022-10-23T04:32:13.658Z,6.30
2022-10-23T04:35:31.727Z,6.70
2022-10-23T04:38:49.004Z,6.97
2022-10-23T04:42:05.005Z,6.55
2022-10-23T04:45:23.100Z,6.75
2022-10-23T04:48:39.343Z,7.32
2022-10-23T04:51:55.331Z,6.50
2022-10-23T04:55:13.654Z,5.97
2022-10-23T04:58:29.624Z,5.93
2022-10-23T05:01:45.664Z,6.53
2022-10-23T05:05:03.589Z,6.53
2022-10-23T05:08:19.562Z,6.38
2022-10-23T05:11:36.329Z,6.13
2022-10-23T05:14:53.395Z,7.03
2022-10-23T05:18:09.293Z,6.00
2022-10-23T05:21:25.541Z,6.10
2022-10-23T05:24:42.785Z,6.50
2022-10-23T05:28:00.618Z,7.63
2022-10-23T05:31:16.997Z,6.72
2022-10-23T05:34:34.053Z,7.47
2022-10-23T05:37:50.212Z,6.50
2022-10-23T05:41:07.156Z,6.53
2022-10-23T05:44:23.492Z,5.95
2022-10-23T05:47:39.587Z,5.75
2022-10-23T05:50:55.843Z,6.55
2022-10-23T05:54:11.999Z,5.90
2022-10-23T05:57:27.927Z,5.93
2022-10-23T06:00:43.968Z,5.97
2022-10-23T06:04:00.978Z,6.25
2022-10-23T06:07:18.018Z,6.60
2022-10-23T06:10:33.874Z,7.53
2022-10-23T06:13:50.113Z,6.28
2022-10-23T06:17:06.650Z,6.50
2022-10-23T06:20:27.877Z,6.72
2022-10-23T06:23:46.129Z,6.45
2022-10-23T06:27:02.223Z,6.95
2022-10-23T06:30:18.681Z,7.18
2022-10-23T06:33:35.025Z,6.93
2022-10-23T06:36:51.272Z,7.00
2022-10-23T06:40:07.814Z,6.85
2022-10-23T06:43:24.110Z,7.82
2022-10-23T06:46:40.181Z,6.88
2022-10-23T06:49:58.235Z,6.97
2022-10-23T06:53:13.944Z,7.55
2022-10-23T06:56:29.829Z,6.32
2022-10-23T06:59:45.896Z,6.60
2022-10-23T07:03:02.079Z,6.30
2022-10-23T07:06:19.094Z,7.38
2022-10-23T07:09:36.064Z,6.90
2022-10-23T07:12:52.145Z,7.03
2022-10-23T07:16:08.255Z,6.50
2022-10-23T07:19:25.299Z,6.72
2022-10-23T07:22:41.705Z,7.13
2022-10-23T07:25:58.182Z,6.60
2022-10-23T07:29:16.633Z,7.00
2022-10-23T07:32:32.777Z,5.55
2022-10-23T07:35:50.575Z,6.82
2022-10-23T07:39:06.281Z,7.13
2022-10-23T07:42:22.754Z,8.02
2022-10-23T07:45:41.794Z,7.70
2022-10-23T07:48:58.223Z,6.28
2022-10-23T07:52:14.421Z,7.88
2022-10-23T07:55:31.665Z,7.43
2022-10-23T07:58:47.678Z,7.05
2022-10-23T08:02:03.877Z,8.02
2022-10-23T08:05:20.051Z,7.22
2022-10-23T08:08:36.052Z,7.18
2022-10-23T08:11:52.283Z,6.95
2022-10-23T08:15:11.819Z,6.57
2022-10-23T08:18:27.627Z,7.45
2022-10-23T08:21:44.332Z,6.95
2022-10-23T08:25:00.548Z,7.38
2022-10-23T08:28:16.595Z,6.60
2022-10-23T08:31:33.106Z,6.65
2022-10-23T08:34:49.386Z,7.97
2022-10-23T08:38:05.676Z,8.23
2022-10-23T08:41:21.624Z,6.93
2022-10-23T08:44:40.152Z,8.35
2022-10-23T08:47:56.927Z,7.65
2022-10-23T08:51:12.956Z,6.65
2022-10-23T08:54:31.290Z,7.10
2022-10-23T08:57:47.406Z,6.97
2022-10-23T09:01:03.924Z,7.57
2022-10-23T09:04:20.622Z,5.88
2022-10-23T09:07:36.680Z,6.82
2022-10-23T09:10:54.497Z,6.07
2022-10-23T09:14:13.861Z,5.97
2022-10-23T09:17:29.820Z,6.53
2022-10-23T09:20:46.969Z,6.75
2022-10-23T09:24:02.993Z,5.85
2022-10-23T09:27:19.563Z,7.35
2022-10-23T09:30:36.951Z,6.53
2022-10-23T09:33:53.419Z,6.13
2022-10-23T09:37:09.684Z,6.07
2022-10-23T09:40:28.020Z,7.32
2022-10-23T09:43:44.095Z,6.40
2022-10-23T09:47:00.802Z,6.43
2022-10-23T09:50:17.412Z,7.03
2022-10-23T09:53:33.487Z,6.95
2022-10-23T09:56:49.594Z,7.82
2022-10-23T10:00:06.958Z,7.38
2022-10-23T10:03:23.534Z,7.95
2022-10-23T10:10:01.515Z,6.68
2022-10-23T10:13:17.577Z,7.80
2022-10-23T10:16:33.873Z,6.55
2022-10-23T10:19:50.514Z,7.03
2022-10-23T10:23:06.623Z,7.85
2022-10-23T10:26:22.689Z,8.73
2022-10-23T10:29:40.283Z,7.20
2022-10-23T10:32:56.753Z,7.57
2022-10-23T10:36:12.493Z,6.47
2022-10-23T10:39:28.505Z,6.57
2022-10-23T10:42:45.039Z,6.35
2022-10-23T10:46:01.334Z,5.97
2022-10-23T10:49:17.503Z,9.52
2022-10-23T10:52:34.046Z,7.68
2022-10-23T10:55:51.807Z,6.70
2022-10-23T10:59:07.791Z,7.05
2022-10-23T11:02:24.116Z,6.80
2022-10-23T11:05:40.902Z,7.20
2022-10-23T11:09:09.146Z,7.57
2022-10-23T11:12:33.213Z,7.22
2022-10-23T11:15:49.454Z,7.85
2022-10-23T11:19:11.244Z,6.78
2022-10-23T11:22:30.228Z,8.02
2022-10-23T11:25:47.545Z,7.25
2022-10-23T11:29:03.754Z,6.88
2022-10-23T11:32:20.531Z,6.57
2022-10-23T11:35:37.191Z,8.18
2022-10-23T11:38:53.504Z,6.40
2022-10-23T11:42:09.951Z,6.70
2022-10-23T11:45:25.921Z,5.22
2022-10-23T11:48:42.652Z,6.32
2022-10-23T11:51:58.821Z,5.55
2022-10-23T11:55:15.095Z,5.18
2022-10-23T11:58:32.084Z,5.15
2022-10-23T12:01:48.904Z,5.32
2022-10-23T12:05:05.170Z,5.80
2022-10-23T12:08:21.287Z,5.85
2022-10-23T12:11:37.835Z,4.07
2022-10-23T12:14:56.462Z,5.15
2022-10-23T12:18:12.483Z,5.40
2022-10-23T12:21:28.625Z,4.28
2022-10-23T12:24:46.673Z,4.35
2022-10-23T12:28:02.667Z,4.95
2022-10-23T12:31:18.794Z,3.45
2022-10-23T12:34:35.021Z,4.22
2022-10-23T12:37:51.011Z,3.47
2022-10-23T12:41:06.842Z,4.05
2022-10-23T12:44:23.689Z,4.63
2022-10-23T12:47:39.894Z,4.78
2022-10-23T12:50:56.713Z,5.05
2022-10-23T12:54:12.475Z,4.95
2022-10-23T12:57:28.585Z,5.45
2022-10-23T13:00:44.813Z,5.30
2022-10-23T13:04:01.217Z,5.68
2022-10-23T13:07:17.758Z,5.97
2022-10-23T13:10:34.039Z,6.55
2022-10-23T13:13:50.786Z,4.50
2022-10-23T13:17:06.733Z,5.45
2022-10-23T13:20:23.711Z,4.70
2022-10-23T13:23:39.753Z,4.60
2022-10-23T13:26:56.033Z,4.57
2022-10-23T13:30:12.245Z,4.72
2022-10-23T13:33:28.792Z,4.78
2022-10-23T13:36:45.175Z,5.10
2022-10-23T13:40:01.558Z,5.20
2022-10-23T13:43:17.796Z,4.50
2022-10-23T13:46:34.499Z,4.82
2022-10-23T13:49:50.783Z,4.68
2022-10-23T13:53:06.892Z,4.47
2022-10-23T13:56:22.966Z,5.93
2022-10-23T13:59:39.269Z,4.45
2022-10-23T14:06:11.623Z,6.00
2022-10-23T14:09:27.762Z,4.70
2022-10-23T14:12:44.821Z,5.20
2022-10-23T14:16:01.512Z,5.30
2022-10-23T14:19:18.084Z,4.63
2022-10-23T14:22:34.650Z,5.55
2022-10-23T14:25:50.849Z,5.03
2022-10-23T14:29:10.452Z,5.22
2022-10-23T14:32:30.719Z,5.20
2022-10-23T14:35:46.844Z,5.82
2022-10-23T14:39:02.856Z,4.70
2022-10-23T14:42:19.187Z,6.05
2022-10-23T14:45:35.703Z,6.30
2022-10-23T14:48:56.414Z,5.97
2022-10-23T14:52:15.262Z,5.87
2022-10-23T14:55:31.376Z,5.93
2022-10-23T14:58:47.328Z,6.20
2022-10-23T15:02:03.405Z,5.70
2022-10-23T15:05:19.731Z,5.15
2022-10-23T15:08:35.905Z,5.45
2022-10-23T15:11:51.983Z,4.78
2022-10-23T15:15:08.099Z,4.93
2022-10-23T15:18:24.407Z,5.13
2022-10-23T15:21:41.777Z,5.32
2022-10-23T15:24:58.412Z,6.70
2022-10-23T15:28:14.404Z,5.53
2022-10-23T15:31:30.388Z,5.97
2022-10-23T15:34:46.680Z,5.68
2022-10-23T15:38:02.771Z,5.65
2022-10-23T15:41:18.820Z,4.63
2022-10-23T15:44:35.255Z,5.68
2022-10-23T15:47:51.275Z,5.50
2022-10-23T15:51:07.548Z,5.22
2022-10-23T15:54:24.646Z,6.35
2022-10-23T15:57:42.572Z,5.22
2022-10-23T16:00:59.185Z,5.35
2022-10-23T16:04:16.674Z,7.10
2022-10-23T16:07:32.954Z,6.18
2022-10-23T16:10:49.733Z,5.30
2022-10-23T16:14:05.685Z,5.22
2022-10-23T16:17:21.635Z,7.53
2022-10-23T16:20:38.686Z,6.55
2022-10-23T16:23:55.259Z,6.25
2022-10-23T16:27:11.081Z,6.75
2022-10-23T16:30:27.358Z,6.28
2022-10-23T16:33:43.329Z,6.05
2022-10-23T16:36:59.853Z,5.43
2022-10-23T16:40:15.926Z,6.80
2022-10-23T16:43:32.387Z,8.20
2022-10-23T16:46:48.749Z,13.60
2022-10-23T16:50:04.619Z,11.95
2022-10-23T16:53:21.017Z,13.60
2022-10-23T16:56:37.442Z,12.05
2022-10-23T16:59:53.723Z,10.75
2022-10-23T17:03:10.088Z,9.98
2022-10-23T17:06:26.465Z,10.18
2022-10-23T17:09:43.003Z,7.03
2022-10-23T17:12:58.874Z,5.53
2022-10-23T17:16:15.203Z,5.13
2022-10-23T17:19:47.088Z,5.10
2022-10-23T17:23:03.636Z,5.32
2022-10-23T17:26:19.789Z,7.22
2022-10-23T17:29:35.869Z,13.10
2022-10-23T17:32:53.393Z,10.18
2022-10-23T17:36:09.661Z,7.63
2022-10-23T17:39:27.225Z,8.10
2022-10-23T17:42:43.885Z,7.90
2022-10-23T17:46:00.601Z,6.97
2022-10-23T17:49:17.337Z,8.00
2022-10-23T17:52:33.912Z,6.03
2022-10-23T17:55:51.754Z,8.48
2022-10-23T17:59:08.033Z,6.35
2022-10-23T18:02:25.175Z,6.38
2022-10-23T18:05:42.862Z,8.57
2022-10-23T18:09:01.365Z,10.77
2022-10-23T18:12:18.024Z,11.93
2022-10-23T18:15:34.461Z,9.35
2022-10-23T18:18:50.605Z,8.80
2022-10-23T18:22:06.874Z,8.30
2022-10-23T18:25:23.442Z,7.63
2022-10-23T18:28:39.850Z,7.45
2022-10-23T18:31:55.923Z,9.13
2022-10-23T18:35:12.540Z,7.55
2022-10-23T18:38:29.045Z,9.55
2022-10-23T18:41:45.667Z,11.18
2022-10-23T18:45:01.876Z,19.52
2022-10-23T18:48:17.900Z,19.17
2022-10-23T18:51:34.039Z,10.70
2022-10-23T18:54:50.503Z,10.95
2022-10-23T18:58:06.628Z,13.05
2022-10-23T19:01:23.675Z,21.58
2022-10-23T19:04:40.157Z,31.60
2022-10-23T19:07:56.334Z,16.88
2022-10-23T19:11:12.756Z,21.13
2022-10-23T19:14:29.687Z,15.75
2022-10-23T19:17:45.788Z,17.23
2022-10-23T19:21:02.099Z,18.48
2022-10-23T19:24:18.002Z,12.60
2022-10-23T19:27:34.882Z,12.00
2022-10-23T19:30:52.351Z,11.50
2022-10-23T19:34:09.268Z,13.70
2022-10-23T19:37:25.764Z,11.13
2022-10-23T19:40:41.820Z,11.90
2022-10-23T19:43:58.139Z,12.00
2022-10-23T19:47:14.106Z,11.65
2022-10-23T19:50:30.076Z,11.30
2022-10-23T19:53:46.013Z,10.50
2022-10-23T19:57:02.472Z,10.10
2022-10-23T20:00:19.011Z,8.68
2022-10-23T20:03:34.835Z,11.23
2022-10-23T20:06:51.120Z,9.90
2022-10-23T20:10:07.737Z,10.60
2022-10-23T20:13:24.044Z,10.60
2022-10-23T20:16:40.502Z,11.25
2022-10-23T20:20:00.524Z,11.05
2022-10-23T20:23:16.746Z,10.43
2022-10-23T20:26:32.657Z,10.90
2022-10-23T20:29:48.723Z,11.02
2022-10-23T20:33:05.249Z,11.82
2022-10-23T20:36:21.111Z,10.65
2022-10-23T20:39:37.671Z,11.05
2022-10-23T20:42:53.682Z,11.80
2022-10-23T20:46:10.334Z,11.70
2022-10-23T20:49:26.344Z,10.65
2022-10-23T20:52:42.593Z,10.60
2022-10-23T20:55:59.417Z,11.48
2022-10-23T20:59:15.338Z,11.43
2022-10-23T21:02:31.687Z,12.90
2022-10-23T21:05:48.878Z,11.50
2022-10-23T21:09:08.567Z,12.40
2022-10-23T21:12:24.858Z,11.43
2022-10-23T21:15:40.987Z,13.25
2022-10-23T21:18:57.138Z,11.63
2022-10-23T21:22:13.107Z,11.65
2022-10-23T21:25:30.440Z,13.05
2022-10-23T21:28:55.606Z,15.77
2022-10-23T21:32:17.401Z,14.40
2022-10-23T21:35:33.560Z,12.93
2022-10-23T21:38:50.058Z,12.75
2022-10-23T21:42:06.261Z,12.23
2022-10-23T21:45:22.316Z,12.68
2022-10-23T21:48:38.551Z,13.45
2022-10-23T21:51:54.476Z,12.07
2022-10-23T21:55:10.455Z,12.32
2022-10-23T21:58:26.520Z,11.77
2022-10-23T22:01:43.309Z,12.68
2022-10-23T22:05:00.324Z,12.25
2022-10-23T22:08:16.602Z,12.23
2022-10-23T22:11:32.683Z,12.60
2022-10-23T22:14:49.174Z,11.43
2022-10-23T22:18:05.972Z,11.70
2022-10-23T22:21:22.678Z,13.25
2022-10-23T22:24:39.907Z,12.48
2022-10-23T22:27:56.701Z,12.63
2022-10-23T22:31:13.260Z,12.50
2022-10-23T22:38:06.471Z,11.05
2022-10-23T22:41:23.207Z,9.65
2022-10-23T22:44:39.552Z,12.30
2022-10-23T22:47:56.119Z,11.73
2022-10-23T22:51:12.340Z,12.90
2022-10-23T22:54:30.548Z,11.80
2022-10-23T22:57:46.674Z,14.07
2022-10-23T23:01:04.713Z,14.85
2022-10-23T23:04:37.338Z,14.38
2022-10-23T23:07:54.047Z,13.20
2022-10-23T23:11:10.748Z,13.77
2022-10-23T23:14:27.133Z,12.45
2022-10-23T23:17:43.420Z,13.38
2022-10-23T23:20:59.504Z,13.25
2022-10-23T23:24:15.348Z,12.77
2022-10-23T23:27:31.327Z,12.70
2022-10-23T23:30:47.536Z,12.93
2022-10-23T23:34:05.597Z,13.02
2022-10-23T23:37:21.389Z,13.15
2022-10-23T23:40:38.608Z,14.70
2022-10-23T23:43:54.554Z,13.15
2022-10-23T23:47:10.583Z,12.43
2022-10-23T23:50:28.789Z,12.07
2022-10-23T23:53:46.426Z,12.35
2022-10-23T23:57:02.879Z,13.15
